Terminal Aerodrome Forecast
Issued by NWS

Home | Current Version | Previous Version | Graphics & Text | Print | Product List | Glossary On
Versions: 1 2 3 4 5 6 7 8 9 10 11 12 13
000
FTUS43 KICT 151003 AAA
TAFRSL
TAF AMD
KRSL 151003Z 1510/1606 32007KT P6SM SKC
     FM151600 32012G18KT P6SM SKC
     FM152300 26006KT P6SM SKC=

USA.gov is the U.S. government's official web portal to all federal, state and local government web resources and services.